Fulton, Maryland
Current Conditions -  °F | °C
As of 2:30 PM on Thursday 18 Dec 2014 (Local Time) from KFME Reporting Station
Broken Clouds Broken Clouds  
Wind Chill: 34°   Ceiling: 3800
Heat Index: 39°   Visibility: 10mi
Dew Point: 23°   Wind: 7mph
Humidity: 52%   Direction: 320°NW
Pressure: 30.11"   Gusts: 18mph
Location:  39.15°N, 76.92°W
Report Text: KFME 181930Z AUTO 32006G16KT 10SM BKN038 04/M05 A3011 RMK AO1
Loading
Personal Weather Stations






























Interactive Weather Map New forecast layout! Learn more

10-Day Weather Forecast

Advertisements
Track Severe Weather on mobile